createdAt,value
2023-02-24T00:02:20.307Z,5.92
2023-02-24T00:04:52.131Z,6.01
2023-02-24T00:07:21.605Z,5.93
2023-02-24T00:09:52.708Z,6.09
2023-02-24T00:12:22.279Z,6.06
2023-02-24T00:14:51.900Z,6.11
2023-02-24T00:17:20.522Z,6.16
2023-02-24T00:19:51.651Z,6.21
2023-02-24T00:22:23.138Z,6.36
2023-02-24T00:24:51.951Z,6.33
2023-02-24T00:27:20.759Z,6.46
2023-02-24T00:29:49.303Z,6.61
2023-02-24T00:32:26.986Z,6.57
2023-02-24T00:34:57.633Z,6.53
2023-02-24T00:37:26.025Z,6.60
2023-02-24T00:40:01.797Z,6.57
2023-02-24T00:42:30.732Z,6.48
2023-02-24T00:45:00.673Z,6.64
2023-02-24T00:47:34.063Z,6.61
2023-02-24T00:50:02.544Z,6.67
2023-02-24T00:52:30.956Z,6.57
2023-02-24T00:54:59.992Z,6.60
2023-02-24T00:57:28.691Z,6.69
2023-02-24T01:00:01.121Z,6.62
2023-02-24T01:02:34.162Z,6.79
2023-02-24T01:05:06.261Z,6.67
2023-02-24T01:07:34.804Z,6.78
2023-02-24T01:10:06.915Z,6.91
2023-02-24T01:12:49.855Z,6.89
2023-02-24T01:15:27.568Z,6.96
2023-02-24T01:17:59.556Z,7.00
2023-02-24T01:20:30.622Z,6.98
2023-02-24T01:22:58.775Z,7.14
2023-02-24T01:25:31.546Z,7.22
2023-02-24T01:27:59.848Z,7.17
2023-02-24T01:30:28.143Z,7.42
2023-02-24T01:32:58.492Z,7.45
2023-02-24T01:35:27.098Z,7.39
2023-02-24T01:37:55.346Z,7.42
2023-02-24T01:40:26.459Z,7.40
2023-02-24T01:42:55.360Z,7.40
2023-02-24T01:45:29.063Z,7.44
2023-02-24T01:48:05.454Z,7.29
2023-02-24T01:50:36.364Z,7.29
2023-02-24T01:53:08.507Z,7.32
2023-02-24T01:55:43.108Z,7.42
2023-02-24T01:58:19.915Z,7.32
2023-02-24T02:00:48.875Z,7.30
2023-02-24T02:03:25.342Z,7.32
2023-02-24T02:05:56.725Z,7.36
2023-02-24T02:08:25.665Z,7.35
2023-02-24T02:10:58.927Z,7.45
2023-02-24T02:13:29.684Z,7.36
2023-02-24T02:16:08.598Z,7.44
2023-02-24T02:18:48.963Z,7.36
2023-02-24T02:21:57.183Z,7.31
2023-02-24T02:24:48.636Z,7.28
2023-02-24T02:27:48.950Z,7.36
2023-02-24T02:30:34.666Z,7.23
2023-02-24T02:33:57.042Z,7.28
2023-02-24T02:36:33.972Z,7.28
2023-02-24T02:39:12.740Z,7.13
2023-02-24T02:41:54.940Z,7.30
2023-02-24T02:44:32.380Z,7.28
2023-02-24T02:47:09.248Z,7.26
2023-02-24T02:49:43.065Z,7.21
2023-02-24T02:52:18.139Z,7.10
2023-02-24T02:54:50.896Z,7.11
2023-02-24T02:57:23.579Z,7.17
2023-02-24T02:59:57.375Z,6.94
2023-02-24T03:02:38.696Z,6.91
2023-02-24T03:05:11.289Z,6.93
2023-02-24T03:07:45.442Z,6.94
2023-02-24T03:10:21.311Z,6.73
2023-02-24T03:12:53.508Z,6.86
2023-02-24T03:15:24.178Z,6.84
2023-02-24T03:18:01.798Z,6.89
2023-02-24T03:20:37.272Z,6.72
2023-02-24T03:23:16.833Z,6.67
2023-02-24T03:25:53.481Z,6.62
2023-02-24T03:28:30.293Z,6.67
2023-02-24T03:31:04.942Z,6.76
2023-02-24T03:33:38.034Z,6.74
2023-02-24T03:36:07.326Z,6.36
2023-02-24T03:38:38.606Z,6.58
2023-02-24T03:41:11.600Z,6.55
2023-02-24T03:43:45.593Z,6.60
2023-02-24T03:46:17.252Z,6.47
2023-02-24T03:48:53.004Z,6.41
2023-02-24T03:51:24.616Z,6.19
2023-02-24T03:54:05.736Z,6.37
2023-02-24T03:56:47.662Z,6.55
2023-02-24T03:59:25.317Z,6.41
2023-02-24T04:01:58.339Z,6.36
2023-02-24T04:04:34.025Z,6.33
2023-02-24T04:07:06.355Z,6.32
2023-02-24T04:09:41.685Z,6.19
2023-02-24T04:12:20.189Z,6.29
2023-02-24T04:14:53.117Z,6.35
2023-02-24T04:17:24.876Z,6.37
2023-02-24T04:19:57.338Z,6.43
2023-02-24T04:22:28.035Z,6.47
2023-02-24T04:25:02.647Z,6.66
2023-02-24T04:27:31.038Z,6.56
2023-02-24T04:30:05.099Z,6.44
2023-02-24T04:32:34.873Z,6.63
2023-02-24T04:35:06.562Z,6.48
2023-02-24T04:37:39.939Z,6.41
2023-02-24T04:40:12.295Z,6.56
2023-02-24T04:42:46.749Z,6.39
2023-02-24T04:45:16.656Z,6.32
2023-02-24T04:47:49.769Z,6.30
2023-02-24T04:50:24.088Z,6.17
2023-02-24T04:52:54.263Z,6.35
2023-02-24T04:55:26.603Z,6.38
2023-02-24T04:57:54.972Z,6.51
2023-02-24T05:00:27.082Z,6.57
2023-02-24T05:02:57.262Z,6.41
2023-02-24T05:05:27.998Z,6.24
2023-02-24T05:07:57.753Z,6.29
2023-02-24T05:10:28.560Z,6.43
2023-02-24T05:12:58.668Z,6.41
2023-02-24T05:15:31.482Z,6.45
2023-02-24T05:18:01.201Z,6.56
2023-02-24T05:20:47.680Z,6.46
2023-02-24T05:23:17.739Z,6.39
2023-02-24T05:25:48.005Z,6.48
2023-02-24T05:28:16.384Z,6.46
2023-02-24T05:30:44.570Z,6.52
2023-02-24T05:33:13.638Z,6.56
2023-02-24T05:35:41.932Z,6.58
2023-02-24T05:38:10.733Z,6.44
2023-02-24T05:40:46.520Z,6.69
2023-02-24T05:43:18.713Z,6.55
2023-02-24T05:45:47.589Z,6.52
2023-02-24T05:48:16.203Z,6.49
2023-02-24T05:50:52.547Z,6.36
2023-02-24T05:53:20.768Z,6.44
2023-02-24T05:55:49.293Z,6.47
2023-02-24T05:58:19.429Z,6.21
2023-02-24T06:00:47.827Z,6.21
2023-02-24T06:03:17.896Z,6.58
2023-02-24T06:05:54.488Z,6.53
2023-02-24T06:08:24.522Z,6.42
2023-02-24T06:10:53.925Z,6.35
2023-02-24T06:13:23.888Z,6.31
2023-02-24T06:15:57.279Z,6.36
2023-02-24T06:18:25.997Z,6.23
2023-02-24T06:20:54.599Z,6.13
2023-02-24T06:23:26.847Z,6.28
2023-02-24T06:25:57.857Z,6.14
2023-02-24T06:28:29.910Z,6.03
2023-02-24T06:30:58.196Z,6.02
2023-02-24T06:33:27.428Z,6.07
2023-02-24T06:35:55.573Z,6.17
2023-02-24T06:38:26.044Z,6.25
2023-02-24T06:40:58.827Z,6.15
2023-02-24T06:43:28.363Z,6.24
2023-02-24T06:45:56.564Z,6.14
2023-02-24T06:48:25.499Z,6.02
2023-02-24T06:50:55.165Z,6.13
2023-02-24T06:53:24.026Z,6.13
2023-02-24T06:55:52.208Z,5.99
2023-02-24T06:58:24.351Z,5.85
2023-02-24T07:00:57.988Z,5.89
2023-02-24T07:03:39.269Z,5.80
2023-02-24T07:06:24.583Z,5.90
2023-02-24T07:08:54.334Z,5.95
2023-02-24T07:11:23.470Z,5.97
2023-02-24T07:13:54.869Z,5.98
2023-02-24T07:16:52.608Z,5.92
2023-02-24T07:19:23.845Z,5.95
2023-02-24T07:21:52.889Z,6.04
2023-02-24T07:24:26.386Z,5.91
2023-02-24T07:27:01.408Z,6.22
2023-02-24T07:29:32.497Z,6.11
2023-02-24T07:32:05.832Z,6.06
2023-02-24T07:34:40.658Z,6.25
2023-02-24T07:37:10.342Z,6.38
2023-02-24T07:39:39.895Z,6.45
2023-02-24T07:42:10.534Z,6.41
2023-02-24T07:44:39.016Z,6.58
2023-02-24T07:47:08.887Z,6.67
2023-02-24T07:49:37.668Z,6.78
2023-02-24T07:52:08.238Z,6.82
2023-02-24T07:54:39.620Z,6.75
2023-02-24T07:57:13.945Z,6.66
2023-02-24T07:59:45.240Z,6.78
2023-02-24T08:02:15.038Z,6.91
2023-02-24T08:04:50.267Z,6.97
2023-02-24T08:07:25.736Z,7.06
2023-02-24T08:10:24.409Z,7.26
2023-02-24T08:12:55.875Z,7.31
2023-02-24T08:15:26.511Z,7.46
2023-02-24T08:18:00.572Z,7.46
2023-02-24T08:20:36.479Z,7.57
2023-02-24T08:23:06.537Z,7.57
2023-02-24T08:25:38.827Z,7.62
2023-02-24T08:28:11.716Z,7.73
2023-02-24T08:30:46.764Z,7.94
2023-02-24T08:33:24.133Z,7.76
2023-02-24T08:36:01.636Z,7.93
2023-02-24T08:38:42.066Z,7.94
2023-02-24T08:41:18.469Z,7.93
2023-02-24T08:43:49.195Z,7.94
2023-02-24T08:46:21.434Z,7.87
2023-02-24T08:48:55.681Z,7.99
2023-02-24T08:51:30.520Z,7.86
2023-02-24T08:54:00.949Z,7.68
2023-02-24T08:56:35.067Z,7.69
2023-02-24T08:59:06.533Z,7.77
2023-02-24T09:01:37.586Z,7.62
2023-02-24T09:04:10.315Z,7.57
2023-02-24T09:06:44.322Z,7.63
2023-02-24T09:09:21.272Z,7.59
2023-02-24T09:11:56.667Z,7.59
2023-02-24T09:14:28.713Z,7.53
2023-02-24T09:17:06.508Z,7.42
2023-02-24T09:19:58.050Z,7.32
2023-02-24T09:22:33.468Z,7.35
2023-02-24T09:25:21.031Z,7.55
2023-02-24T09:27:55.353Z,7.68
2023-02-24T09:30:36.859Z,7.70
2023-02-24T09:33:18.913Z,7.72
2023-02-24T09:36:09.949Z,7.64
2023-02-24T09:38:53.533Z,7.55
2023-02-24T09:41:32.210Z,7.65
2023-02-24T09:44:18.844Z,7.79
2023-02-24T09:46:54.995Z,7.88
2023-02-24T09:49:39.248Z,8.02
2023-02-24T09:52:17.115Z,8.09
2023-02-24T09:55:12.573Z,8.03
2023-02-24T09:58:16.338Z,8.04
2023-02-24T10:00:55.954Z,7.84
2023-02-24T10:03:42.235Z,7.91
2023-02-24T10:06:22.046Z,7.80
2023-02-24T10:08:58.559Z,7.80
2023-02-24T10:11:36.995Z,7.96
2023-02-24T10:14:08.445Z,7.99
2023-02-24T10:16:43.805Z,8.19
2023-02-24T10:19:26.480Z,8.07
2023-02-24T10:22:03.439Z,8.13
2023-02-24T10:24:38.304Z,8.07
2023-02-24T10:27:17.658Z,8.15
2023-02-24T10:30:05.803Z,7.92
2023-02-24T10:32:47.535Z,7.93
2023-02-24T10:35:17.765Z,8.02
2023-02-24T10:37:46.431Z,8.01
2023-02-24T10:40:26.702Z,7.91
2023-02-24T10:43:10.661Z,7.93
2023-02-24T10:45:45.586Z,7.90
2023-02-24T10:48:40.315Z,7.66
2023-02-24T10:51:20.088Z,7.98
2023-02-24T10:54:10.316Z,8.21
2023-02-24T10:56:55.544Z,8.12
2023-02-24T10:59:50.393Z,8.37
2023-02-24T11:02:30.126Z,8.19
2023-02-24T11:05:27.352Z,8.28
2023-02-24T11:08:09.811Z,8.17
2023-02-24T11:10:53.378Z,8.21
2023-02-24T11:13:40.515Z,8.23
2023-02-24T11:16:28.422Z,8.32
2023-02-24T11:19:00.031Z,8.33
2023-02-24T11:21:28.989Z,8.45
2023-02-24T11:24:03.066Z,8.40
2023-02-24T11:26:42.040Z,8.19
2023-02-24T11:29:39.080Z,8.30
2023-02-24T11:32:23.678Z,8.36
2023-02-24T11:34:58.127Z,8.33
2023-02-24T11:37:38.127Z,8.41
2023-02-24T11:40:13.575Z,8.32
2023-02-24T11:42:52.384Z,8.27
2023-02-24T11:45:33.683Z,8.22
2023-02-24T11:48:07.948Z,8.32
2023-02-24T11:50:44.908Z,8.31
2023-02-24T11:53:27.019Z,8.29
2023-02-24T11:56:02.397Z,8.23
2023-02-24T11:58:42.177Z,8.19
2023-02-24T12:01:18.846Z,8.10
2023-02-24T12:03:55.629Z,8.23
2023-02-24T12:06:31.030Z,8.26
2023-02-24T12:09:07.790Z,8.33
2023-02-24T12:11:43.205Z,8.31
2023-02-24T12:14:28.945Z,8.08
2023-02-24T12:17:07.918Z,8.05
2023-02-24T12:19:44.547Z,7.94
2023-02-24T12:22:17.716Z,7.83
2023-02-24T12:24:51.513Z,7.90
2023-02-24T12:27:35.265Z,8.05
2023-02-24T12:30:34.265Z,8.09
2023-02-24T12:33:17.048Z,7.98
2023-02-24T12:35:51.328Z,7.93
2023-02-24T12:38:44.887Z,7.81
2023-02-24T12:41:50.874Z,7.82
2023-02-24T12:44:31.254Z,7.73
2023-02-24T12:47:10.864Z,7.67
2023-02-24T12:50:09.991Z,7.57
2023-02-24T12:52:54.255Z,7.77
2023-02-24T12:55:32.230Z,7.66
2023-02-24T12:58:09.912Z,7.47
2023-02-24T13:00:52.115Z,7.43
2023-02-24T13:03:35.674Z,7.55
2023-02-24T13:06:15.278Z,7.65
2023-02-24T13:08:55.274Z,7.84
2023-02-24T13:11:36.532Z,7.85
2023-02-24T13:14:11.925Z,7.56
2023-02-24T13:16:42.110Z,7.44
2023-02-24T13:19:25.897Z,7.37
2023-02-24T13:22:06.642Z,7.35
2023-02-24T13:24:39.146Z,7.26
2023-02-24T13:27:09.303Z,7.09
2023-02-24T13:29:48.831Z,7.00
2023-02-24T13:32:32.990Z,7.06
2023-02-24T13:35:03.505Z,7.02
2023-02-24T13:37:36.902Z,7.06
2023-02-24T13:40:27.375Z,6.97
2023-02-24T13:43:04.994Z,6.72
2023-02-24T13:45:34.503Z,6.61
2023-02-24T13:48:28.975Z,6.46
2023-02-24T13:51:11.956Z,6.59
2023-02-24T13:54:00.494Z,6.69
2023-02-24T13:56:39.930Z,6.73
2023-02-24T13:59:35.685Z,6.82
2023-02-24T14:02:13.108Z,6.65
2023-02-24T14:04:48.904Z,6.56
2023-02-24T14:07:23.619Z,6.63
2023-02-24T14:09:58.186Z,6.46
2023-02-24T14:12:29.966Z,6.58
2023-02-24T14:14:59.754Z,6.62
2023-02-24T14:17:30.393Z,6.87
2023-02-24T14:20:11.258Z,6.69
2023-02-24T14:22:45.532Z,6.68
2023-02-24T14:25:17.508Z,6.52
2023-02-24T14:27:47.099Z,6.30
2023-02-24T14:30:26.682Z,6.46
2023-02-24T14:32:58.542Z,6.65
2023-02-24T14:35:34.264Z,6.88
2023-02-24T14:38:04.809Z,6.73
2023-02-24T14:40:35.973Z,6.77
2023-02-24T14:43:04.091Z,6.74
2023-02-24T14:45:32.879Z,6.60
2023-02-24T14:48:03.856Z,6.39
2023-02-24T14:50:37.992Z,6.47
2023-02-24T14:53:12.985Z,6.35
2023-02-24T14:55:50.294Z,6.37
2023-02-24T14:58:39.721Z,6.32
2023-02-24T15:01:23.204Z,6.45
2023-02-24T15:03:56.629Z,6.41
2023-02-24T15:06:40.811Z,6.38
2023-02-24T15:09:16.591Z,6.28
2023-02-24T15:11:46.457Z,6.15
2023-02-24T15:14:36.375Z,6.25
2023-02-24T15:17:24.741Z,6.04
2023-02-24T15:19:58.444Z,5.98
2023-02-24T15:22:33.611Z,6.13
2023-02-24T15:25:24.085Z,6.18
2023-02-24T15:28:05.448Z,6.18
2023-02-24T15:30:36.587Z,6.10
2023-02-24T15:33:08.239Z,6.10
2023-02-24T15:35:41.019Z,5.66
2023-02-24T15:38:17.096Z,5.86
2023-02-24T15:40:54.472Z,5.86
2023-02-24T15:43:47.773Z,5.76
2023-02-24T15:50:33.302Z,5.70
2023-02-24T15:53:05.458Z,5.64
2023-02-24T15:55:33.961Z,5.67
2023-02-24T15:58:04.643Z,5.72
2023-02-24T16:00:39.817Z,5.67
2023-02-24T16:03:08.159Z,5.55
2023-02-24T16:05:36.685Z,5.56
2023-02-24T16:08:05.989Z,5.58
2023-02-24T16:10:34.741Z,5.47
2023-02-24T16:13:03.745Z,5.54
2023-02-24T16:15:35.651Z,5.44
2023-02-24T16:18:04.015Z,5.29
2023-02-24T16:20:34.151Z,5.21
2023-02-24T16:23:04.649Z,5.40
2023-02-24T16:25:37.617Z,5.34
2023-02-24T16:28:05.874Z,4.84
2023-02-24T16:30:35.969Z,5.30
2023-02-24T16:33:05.131Z,5.13
2023-02-24T16:35:33.499Z,5.23
2023-02-24T16:38:02.065Z,5.26
2023-02-24T16:40:37.559Z,5.30
2023-02-24T16:43:09.416Z,5.24
2023-02-24T16:45:39.463Z,5.15
2023-02-24T16:48:10.875Z,4.97
2023-02-24T16:50:41.465Z,4.92
2023-02-24T16:53:12.857Z,4.96
2023-02-24T16:55:41.211Z,5.03
2023-02-24T16:58:09.363Z,4.83
2023-02-24T17:00:40.322Z,4.91
2023-02-24T17:08:55.542Z,4.86
2023-02-24T17:11:30.572Z,4.96
2023-02-24T17:14:04.848Z,4.99
2023-02-24T17:16:33.038Z,5.04
2023-02-24T17:19:01.478Z,4.93
2023-02-24T17:21:36.222Z,4.77
2023-02-24T17:24:16.074Z,4.48
2023-02-24T17:26:44.716Z,4.52
2023-02-24T17:29:14.681Z,4.66
2023-02-24T17:31:43.660Z,4.73
2023-02-24T17:34:14.265Z,4.71
2023-02-24T17:36:42.489Z,4.59
2023-02-24T17:39:14.219Z,4.53
2023-02-24T17:41:42.333Z,4.56
2023-02-24T17:44:10.847Z,4.74
2023-02-24T17:46:39.547Z,4.23
2023-02-24T17:49:07.822Z,4.65
2023-02-24T17:51:36.177Z,4.73
2023-02-24T17:54:04.880Z,4.51
2023-02-24T17:56:34.452Z,4.68
2023-02-24T17:59:03.261Z,4.66
2023-02-24T18:01:31.891Z,4.67
2023-02-24T18:04:01.303Z,4.56
2023-02-24T18:06:29.735Z,4.67
2023-02-24T18:08:58.038Z,4.68
2023-02-24T18:11:26.086Z,4.69
2023-02-24T18:14:00.341Z,4.73
2023-02-24T18:16:30.199Z,4.73
2023-02-24T18:18:58.738Z,4.81
2023-02-24T18:21:27.792Z,4.71
2023-02-24T18:23:56.056Z,4.62
2023-02-24T18:26:26.380Z,4.61
2023-02-24T18:28:56.720Z,4.42
2023-02-24T18:31:26.960Z,4.51
2023-02-24T18:33:57.047Z,4.59
2023-02-24T18:36:25.988Z,4.60
2023-02-24T18:38:54.827Z,4.67
2023-02-24T18:41:24.557Z,4.52
2023-02-24T18:43:57.479Z,4.23
2023-02-24T18:46:27.458Z,4.37
2023-02-24T18:48:57.334Z,4.34
2023-02-24T18:51:26.864Z,4.40
2023-02-24T18:53:55.049Z,4.55
2023-02-24T18:56:25.135Z,4.37
2023-02-24T18:58:57.454Z,4.34
2023-02-24T19:01:28.386Z,4.25
2023-02-24T19:03:57.681Z,4.48
2023-02-24T19:06:27.750Z,4.51
2023-02-24T19:09:02.155Z,4.54
2023-02-24T19:11:31.639Z,4.72
2023-02-24T19:14:01.511Z,4.66
2023-02-24T19:16:30.314Z,4.66
2023-02-24T19:19:00.065Z,4.61
2023-02-24T19:21:31.208Z,4.72
2023-02-24T19:24:01.278Z,4.63
2023-02-24T19:26:29.963Z,4.62
2023-02-24T19:29:00.687Z,4.56
2023-02-24T19:31:31.244Z,4.54
2023-02-24T19:34:01.926Z,4.46
2023-02-24T19:36:31.337Z,4.52
2023-02-24T19:38:59.739Z,4.53
2023-02-24T19:41:28.588Z,4.69
2023-02-24T19:43:57.352Z,4.62
2023-02-24T19:46:27.393Z,4.53
2023-02-24T19:48:57.993Z,4.38
2023-02-24T19:51:27.151Z,4.57
2023-02-24T19:53:56.970Z,4.53
2023-02-24T19:56:25.973Z,4.58
2023-02-24T19:58:54.947Z,4.57
2023-02-24T20:01:24.055Z,4.46
2023-02-24T20:03:56.067Z,4.38
2023-02-24T20:06:26.717Z,4.40
2023-02-24T20:08:55.045Z,4.30
2023-02-24T20:11:24.454Z,4.41
2023-02-24T20:13:53.857Z,4.15
2023-02-24T20:16:25.255Z,4.20
2023-02-24T20:18:56.404Z,4.34
2023-02-24T20:21:25.181Z,4.01
2023-02-24T20:23:53.375Z,4.25
2023-02-24T20:26:24.428Z,4.34
2023-02-24T20:28:53.384Z,4.39
2023-02-24T20:31:22.655Z,4.18
2023-02-24T20:33:56.596Z,4.09
2023-02-24T20:36:26.616Z,4.28
2023-02-24T20:38:56.744Z,4.22
2023-02-24T20:41:25.397Z,4.18
2023-02-24T20:43:54.815Z,4.33
2023-02-24T20:46:25.577Z,4.38
2023-02-24T20:48:57.741Z,4.39
2023-02-24T20:51:27.021Z,4.31
2023-02-24T20:53:58.655Z,4.36
2023-02-24T20:56:28.774Z,4.20
2023-02-24T20:59:01.016Z,4.50
2023-02-24T21:01:31.065Z,4.50
2023-02-24T21:04:01.571Z,4.35
2023-02-24T21:06:31.189Z,4.31
2023-02-24T21:08:59.971Z,4.21
2023-02-24T21:11:30.245Z,4.36
2023-02-24T21:14:06.389Z,4.17
2023-02-24T21:16:36.826Z,4.30
2023-02-24T21:19:18.536Z,4.06
2023-02-24T21:21:47.486Z,4.08
2023-02-24T21:24:15.800Z,4.45
2023-02-24T21:26:44.200Z,4.07
2023-02-24T21:29:12.742Z,4.50
2023-02-24T21:31:41.227Z,4.49
2023-02-24T21:34:11.600Z,4.43
2023-02-24T21:36:43.184Z,4.35
2023-02-24T21:39:14.838Z,4.41
2023-02-24T21:41:43.634Z,4.40
2023-02-24T21:44:14.878Z,4.41
2023-02-24T21:46:43.828Z,4.38
2023-02-24T21:49:14.596Z,4.42
2023-02-24T21:51:44.340Z,4.02
2023-02-24T21:54:14.419Z,4.32
2023-02-24T21:56:43.054Z,4.38
2023-02-24T21:59:12.511Z,4.33
2023-02-24T22:01:42.672Z,4.33
2023-02-24T22:04:12.814Z,4.37
2023-02-24T22:06:44.887Z,4.35
2023-02-24T22:09:15.370Z,4.28
2023-02-24T22:11:43.629Z,4.35
2023-02-24T22:14:13.440Z,4.44
2023-02-24T22:16:42.314Z,4.37
2023-02-24T22:19:10.735Z,4.40
2023-02-24T22:21:42.449Z,4.24
2023-02-24T22:24:14.550Z,4.47
2023-02-24T22:26:43.341Z,4.37
2023-02-24T22:29:12.270Z,4.40
2023-02-24T22:31:43.709Z,4.27
2023-02-24T22:34:13.298Z,4.27
2023-02-24T22:36:41.451Z,4.13
2023-02-24T22:39:12.840Z,4.42
2023-02-24T22:41:41.159Z,4.48
2023-02-24T22:44:11.166Z,4.25
2023-02-24T22:46:40.404Z,4.29
2023-02-24T22:49:08.898Z,4.22
2023-02-24T22:51:37.184Z,4.23
2023-02-24T22:54:06.230Z,4.00
2023-02-24T22:56:36.025Z,4.20
2023-02-24T22:59:04.164Z,3.83
2023-02-24T23:01:34.003Z,4.18
2023-02-24T23:04:03.731Z,4.12
2023-02-24T23:06:32.283Z,4.01
2023-02-24T23:09:01.942Z,3.94
2023-02-24T23:11:32.231Z,4.15
2023-02-24T23:14:03.717Z,4.24
2023-02-24T23:16:35.508Z,4.09
2023-02-24T23:19:05.830Z,4.17
2023-02-24T23:21:35.952Z,3.96
2023-02-24T23:24:04.344Z,3.97
2023-02-24T23:26:34.286Z,3.99
2023-02-24T23:29:04.832Z,3.66
2023-02-24T23:31:33.437Z,4.01
2023-02-24T23:34:02.182Z,3.98
2023-02-24T23:36:31.656Z,3.74
2023-02-24T23:39:00.233Z,3.85
2023-02-24T23:41:28.929Z,3.96
2023-02-24T23:43:57.219Z,4.09
2023-02-24T23:46:26.926Z,3.93
2023-02-24T23:48:57.441Z,4.03
2023-02-24T23:51:27.960Z,4.04
2023-02-24T23:53:59.561Z,3.98
2023-02-24T23:56:30.004Z,3.91
2023-02-24T23:58:59.811Z,4.00
